New Orleans NAS, Louisiana
Current Conditions -  °F | °C
As of 11:55 AM on Thursday 29 Jan 2015 (Local Time) from KNBG Reporting Station
Broken Clouds Broken Clouds  
Wind Chill: 23°   Ceiling: 25000
Heat Index: 23°   Visibility: 10mi
Dew Point: 13°   Wind: 8mph
Humidity: 55%   Direction: 220°SW
Pressure: 30.26"   Gusts: NA
Location:  29.83°N, 90.02°W
Report Text: KNBG 291755Z 22007KT 10SM SCT030 BKN250 23/13 A3026 RMK AO2 SLP245 T02280133 10233 20050 50003 $
Loading
Personal Weather Stations






























Interactive Weather Map New forecast layout! Learn more

10-Day Weather Forecast

Advertisements
Track Severe Weather on mobile